Lake Clear, NY

3:41 AM EDT on May 24, 2015 (GMT -0400)
Adirondack Regional | | Change Station
CLOSE
Current Station
Airport
Location: Saranac Lake,
Elevation: 1660 ft
Nearby Weather Stations

Elev 1660 ft 44.39 °N, 74.21 °W | Updated 50 minutes ago

Overcast
Overcast
51 °F
Feels Like 51 °F
N
14
Wind Variable Wind from SW

Today
High -- | Low -- °F
--% Chance of Precip.
Yesterday
High -- | Low -- °F
Precip. -- in
5:21 AM 8:26 PM
Waxing Crescent, 37% visible
Pressure 30.19 in
Visibility 10.0 miles
Clouds Mostly Cloudy 8500 ft
Overcast 11000 ft
Dew Point 28 °F
Humidity 41%
Rainfall 0.00 in
Snow Depth Not available.
UV 0 out of 12
Pollen 9.80 out of 12
Air Quality Not available.
Flu Activity Widespread
METAR KSLK 240651Z AUTO 23012KT 10SM BKN085 OVC110 11/M02 A3018 RMK AO2 SLP222 T01061022

More Conditions Fewer Conditions

Pressure 30.19 in
Visibility 10.0 miles
Clouds Mostly Cloudy 8500 ft
Overcast 11000 ft
Dew Point 28 °F
Humidity 41%
Rainfall 0.00 in
Snow Depth Not available.
UV 0 out of 12
Pollen 9.80 out of 12
Air Quality Not available.
Flu Activity Widespread
METAR KSLK 240651Z AUTO 23012KT 10SM BKN085 OVC110 11/M02 A3018 RMK AO2 SLP222 T01061022

More Conditions Fewer Conditions

10-Day Weather Forecast

Almanac

Astronomy

May. 24, 2015 Rise Set
Actual Time
Civil Twilight
Nautical Twilight
Astronomical Twilight
Moon
Length of Visible Light
Length of Day
Tomorrow will be .
, % of the Moon is Illuminated

Today's Extremes

State Highs State Lows

Community

WunderPhotos

Upload Photos

1,823,698 photos uploaded!

WunderBlogs® & News

Nearby

Air Quality

  Air Quality AQ Index Pollutant
Not available.

Snow Depth

Station Depth Elevation

Earthquake Activity

City Distance Mag. Time & Date
Minimum magnitude displayed is 2.5.

Coastal Water Temperatures

Place Temperature

Stations

Nearby Weather Stations

Station Location Temp. Windchill Dew Point Humidity Wind Precip. Elev Updated Type